createdAt,value
2019-04-28T00:01:56.949Z,3.77
2019-04-28T00:04:26.988Z,3.60
2019-04-28T00:06:57.157Z,4.30
2019-04-28T00:09:27.272Z,3.53
2019-04-28T00:11:57.339Z,3.67
2019-04-28T00:14:29.045Z,3.70
2019-04-28T00:17:00.960Z,3.53
2019-04-28T00:19:31.553Z,3.73
2019-04-28T00:22:11.067Z,3.77
2019-04-28T00:25:05.757Z,3.60
2019-04-28T00:27:35.823Z,3.43
2019-04-28T00:30:07.740Z,3.50
2019-04-28T00:32:37.927Z,3.17
2019-04-28T00:35:08.364Z,3.07
2019-04-28T00:37:39.256Z,3.43
2019-04-28T00:40:13.288Z,3.33
2019-04-28T00:42:43.418Z,3.70
2019-04-28T00:45:14.427Z,3.30
2019-04-28T00:47:44.536Z,3.70
2019-04-28T00:50:14.670Z,3.63
2019-04-28T00:52:47.964Z,3.27
2019-04-28T00:55:18.066Z,3.50
2019-04-28T00:57:50.857Z,3.43
2019-04-28T01:00:23.126Z,2.90
2019-04-28T01:02:53.667Z,3.37
2019-04-28T01:05:23.774Z,3.43
2019-04-28T01:07:53.850Z,3.17
2019-04-28T01:10:25.210Z,3.63
2019-04-28T01:12:55.394Z,3.40
2019-04-28T01:15:35.805Z,3.07
2019-04-28T01:18:12.015Z,3.37
2019-04-28T01:20:42.042Z,3.03
2019-04-28T01:23:14.579Z,3.40
2019-04-28T01:25:44.700Z,3.03
2019-04-28T01:28:14.806Z,3.20
2019-04-28T01:31:02.953Z,3.47
2019-04-28T01:33:42.800Z,3.10
2019-04-28T01:36:12.819Z,3.37
2019-04-28T01:38:42.862Z,3.30
2019-04-28T01:41:12.884Z,2.80
2019-04-28T01:43:45.193Z,2.97
2019-04-28T01:46:15.370Z,2.77
2019-04-28T01:48:45.504Z,3.10
2019-04-28T01:51:16.077Z,3.30
2019-04-28T01:53:47.784Z,2.93
2019-04-28T01:56:17.856Z,2.97
2019-04-28T01:58:48.039Z,3.10
2019-04-28T02:01:18.279Z,2.60
2019-04-28T02:03:50.142Z,3.07
2019-04-28T02:06:20.174Z,2.83
2019-04-28T02:08:51.299Z,3.10
2019-04-28T02:11:21.570Z,3.13
2019-04-28T02:13:51.619Z,3.00
2019-04-28T02:16:21.894Z,3.43
2019-04-28T02:18:52.023Z,3.30
2019-04-28T02:21:39.658Z,3.60
2019-04-28T02:24:27.464Z,3.37
2019-04-28T02:26:57.970Z,3.53
2019-04-28T02:29:29.889Z,3.60
2019-04-28T02:32:02.027Z,3.60
2019-04-28T02:34:32.152Z,3.43
2019-04-28T02:37:02.328Z,3.67
2019-04-28T02:39:32.578Z,3.30
2019-04-28T02:42:05.142Z,3.27
2019-04-28T02:44:35.384Z,3.63
2019-04-28T02:47:05.705Z,3.97
2019-04-28T02:50:04.238Z,4.20
2019-04-28T02:52:52.101Z,3.60
2019-04-28T02:55:22.334Z,3.73
2019-04-28T02:57:52.426Z,4.07
2019-04-28T03:00:22.855Z,4.03
2019-04-28T03:02:53.013Z,4.07
2019-04-28T03:05:23.509Z,3.60
2019-04-28T03:07:53.653Z,4.00
2019-04-28T03:10:23.721Z,3.90
2019-04-28T03:12:53.807Z,4.17
2019-04-28T03:15:23.928Z,4.47
2019-04-28T03:17:54.041Z,4.00
2019-04-28T03:20:24.093Z,4.00
2019-04-28T03:22:54.620Z,3.67
2019-04-28T03:25:46.829Z,4.17
2019-04-28T03:28:24.594Z,4.73
2019-04-28T03:31:36.860Z,4.30
2019-04-28T03:33:47.355Z,4.80
2019-04-28T03:36:15.545Z,4.30
2019-04-28T03:38:43.037Z,5.00
2019-04-28T03:41:13.146Z,4.67
2019-04-28T03:43:43.165Z,4.40
2019-04-28T03:46:23.333Z,4.60
2019-04-28T03:48:53.386Z,5.00
2019-04-28T03:51:23.521Z,4.83
2019-04-28T03:53:53.587Z,4.97
2019-04-28T03:56:23.738Z,4.93
2019-04-28T03:58:53.944Z,5.00
2019-04-28T04:01:24.223Z,4.97
2019-04-28T04:03:55.839Z,5.73
2019-04-28T04:06:25.889Z,5.00
2019-04-28T04:08:55.906Z,5.03
2019-04-28T04:11:41.165Z,5.47
2019-04-28T04:14:21.011Z,5.10
2019-04-28T04:17:00.382Z,5.37
2019-04-28T04:19:33.866Z,4.97
2019-04-28T04:22:03.895Z,5.47
2019-04-28T04:24:40.120Z,4.43
2019-04-28T04:27:10.743Z,4.63
2019-04-28T04:29:43.599Z,4.83
2019-04-28T04:32:20.872Z,3.87
2019-04-28T04:34:44.694Z,4.20
2019-04-28T04:37:14.844Z,3.80
2019-04-28T04:39:44.873Z,3.77
2019-04-28T04:42:14.966Z,3.17
2019-04-28T04:44:50.930Z,3.00
2019-04-28T04:47:21.370Z,2.93
2019-04-28T04:49:51.416Z,2.50
2019-04-28T04:52:21.531Z,2.40
2019-04-28T04:54:51.771Z,2.23
2019-04-28T04:57:23.706Z,2.20
2019-04-28T04:59:53.991Z,1.90
2019-04-28T05:02:55.486Z,1.87
2019-04-28T05:05:32.570Z,2.20
2019-04-28T05:08:02.751Z,2.00
2019-04-28T05:10:32.863Z,2.00
2019-04-28T05:13:02.962Z,2.20
2019-04-28T05:15:32.979Z,2.00
2019-04-28T05:18:03.031Z,2.57
2019-04-28T05:20:33.140Z,2.50
2019-04-28T05:23:29.737Z,2.50
2019-04-28T05:26:01.579Z,2.43
2019-04-28T05:28:36.833Z,3.00
2019-04-28T05:31:05.956Z,3.00
2019-04-28T05:33:36.064Z,3.20
2019-04-28T05:36:06.295Z,2.70
2019-04-28T05:38:36.386Z,3.10
2019-04-28T05:41:06.561Z,2.47
2019-04-28T05:43:36.881Z,2.50
2019-04-28T05:46:10.838Z,2.67
2019-04-28T05:48:51.277Z,2.70
2019-04-28T05:51:22.573Z,2.40
2019-04-28T05:54:03.257Z,2.80
2019-04-28T05:56:39.742Z,2.47
2019-04-28T05:59:19.487Z,2.47
2019-04-28T06:02:12.264Z,2.70
2019-04-28T06:04:42.516Z,2.70
2019-04-28T06:07:20.310Z,2.43
2019-04-28T06:09:52.187Z,2.17
2019-04-28T06:12:22.636Z,2.40
2019-04-28T06:14:52.834Z,2.30
2019-04-28T06:17:22.969Z,2.20
2019-04-28T06:19:53.909Z,2.50
2019-04-28T06:22:25.748Z,2.87
2019-04-28T06:24:56.101Z,2.40
2019-04-28T06:27:29.107Z,2.70
2019-04-28T06:30:01.065Z,3.13
2019-04-28T06:32:31.169Z,3.07
2019-04-28T06:35:01.242Z,2.67
2019-04-28T06:37:31.316Z,2.70
2019-04-28T06:40:01.504Z,2.77
2019-04-28T06:42:31.717Z,2.80
2019-04-28T06:45:01.831Z,2.77
2019-04-28T06:47:34.323Z,2.93
2019-04-28T06:50:04.642Z,2.90
2019-04-28T06:52:37.999Z,3.00
2019-04-28T06:55:11.834Z,3.00
2019-04-28T06:57:41.985Z,2.93
2019-04-28T07:00:12.543Z,2.70
2019-04-28T07:02:42.625Z,3.20
2019-04-28T07:05:14.815Z,3.30
2019-04-28T07:07:45.005Z,2.77
2019-04-28T07:10:15.100Z,3.63
2019-04-28T07:12:45.171Z,3.40
2019-04-28T07:15:15.277Z,3.50
2019-04-28T07:17:45.685Z,3.60
2019-04-28T07:20:43.662Z,3.50
2019-04-28T07:23:13.766Z,4.13
2019-04-28T07:25:43.870Z,4.47
2019-04-28T07:28:14.027Z,4.60
2019-04-28T07:30:44.138Z,4.90
2019-04-28T07:33:14.829Z,4.60
2019-04-28T07:35:46.890Z,4.33
2019-04-28T07:38:17.126Z,4.37
2019-04-28T07:40:47.144Z,4.67
2019-04-28T07:43:17.210Z,4.03
2019-04-28T07:45:47.449Z,4.20
2019-04-28T07:48:29.855Z,4.40
2019-04-28T07:50:59.993Z,4.27
2019-04-28T07:53:46.362Z,4.03
2019-04-28T07:56:16.411Z,3.90
2019-04-28T07:58:46.680Z,4.10
2019-04-28T08:01:16.918Z,3.90
2019-04-28T08:03:49.762Z,4.00
2019-04-28T08:06:22.191Z,3.70
2019-04-28T08:08:52.267Z,3.87
2019-04-28T08:11:22.663Z,3.93
2019-04-28T08:13:52.737Z,3.83
2019-04-28T08:16:24.704Z,3.70
2019-04-28T08:18:54.923Z,3.37
2019-04-28T08:21:26.199Z,3.50
2019-04-28T08:23:56.362Z,3.57
2019-04-28T08:26:26.505Z,3.80
2019-04-28T08:28:56.747Z,4.20
2019-04-28T08:31:52.915Z,3.40
2019-04-28T08:34:23.076Z,3.63
2019-04-28T08:36:53.203Z,3.97
2019-04-28T08:39:26.555Z,3.70
2019-04-28T08:41:55.136Z,5.00
2019-04-28T08:44:25.310Z,4.10
2019-04-28T08:46:55.415Z,4.37
2019-04-28T08:49:25.728Z,4.87
2019-04-28T08:51:55.960Z,4.70
2019-04-28T08:54:26.040Z,4.67
2019-04-28T08:56:56.209Z,4.67
2019-04-28T08:59:26.361Z,4.40
2019-04-28T09:01:57.102Z,4.23
2019-04-28T09:04:29.998Z,4.10
2019-04-28T09:07:01.734Z,3.73
2019-04-28T09:09:36.242Z,3.90
2019-04-28T09:12:06.473Z,4.07
2019-04-28T09:14:37.013Z,3.40
2019-04-28T09:17:09.679Z,3.40
2019-04-28T09:19:42.326Z,3.30
2019-04-28T09:22:11.907Z,3.00
2019-04-28T09:24:42.245Z,3.50
2019-04-28T09:27:12.406Z,3.17
2019-04-28T09:29:42.591Z,4.00
2019-04-28T09:32:13.261Z,3.50
2019-04-28T09:34:43.375Z,3.30
2019-04-28T09:37:13.566Z,3.40
2019-04-28T09:39:53.935Z,3.57
2019-04-28T09:42:42.387Z,4.20
2019-04-28T09:45:19.733Z,3.97
2019-04-28T09:47:49.909Z,4.23
2019-04-28T09:50:20.254Z,3.30
2019-04-28T09:52:50.366Z,3.30
2019-04-28T09:55:20.771Z,2.60
2019-04-28T09:57:50.982Z,2.60
2019-04-28T10:00:21.214Z,3.00
2019-04-28T10:02:51.292Z,2.90
2019-04-28T10:05:23.336Z,2.70
2019-04-28T10:07:53.545Z,3.03
2019-04-28T10:10:23.687Z,2.87
2019-04-28T10:12:53.956Z,2.47
2019-04-28T10:15:24.340Z,2.30
2019-04-28T10:17:54.412Z,2.10
2019-04-28T10:20:24.521Z,2.30
2019-04-28T10:22:54.640Z,2.60
2019-04-28T10:25:24.788Z,2.20
2019-04-28T10:27:54.967Z,2.27
2019-04-28T10:30:25.190Z,2.47
2019-04-28T10:32:58.377Z,2.70
2019-04-28T10:35:28.534Z,2.90
2019-04-28T10:38:00.559Z,3.00
2019-04-28T10:40:39.053Z,2.50
2019-04-28T10:43:09.109Z,2.50
2019-04-28T10:45:49.590Z,2.30
2019-04-28T10:48:22.640Z,2.23
2019-04-28T10:50:52.740Z,2.23
2019-04-28T10:53:22.786Z,2.30
2019-04-28T10:55:53.373Z,2.10
2019-04-28T10:58:23.516Z,1.97
2019-04-28T11:00:53.652Z,1.70
2019-04-28T11:03:23.842Z,1.80
2019-04-28T11:05:53.972Z,2.30
2019-04-28T11:08:57.600Z,2.20
2019-04-28T11:11:28.249Z,2.40
2019-04-28T11:14:00.001Z,2.30
2019-04-28T11:16:34.625Z,2.90
2019-04-28T11:19:05.572Z,2.30
2019-04-28T11:21:35.796Z,2.93
2019-04-28T11:24:05.922Z,2.73
2019-04-28T11:26:39.642Z,2.10
2019-04-28T11:29:12.358Z,2.70
2019-04-28T11:31:42.542Z,1.90
2019-04-28T11:34:31.504Z,2.10
2019-04-28T11:37:03.761Z,2.40
2019-04-28T11:39:40.772Z,2.23
2019-04-28T11:42:10.913Z,2.47
2019-04-28T11:44:42.853Z,2.20
2019-04-28T11:47:16.096Z,2.40
2019-04-28T11:49:46.401Z,2.50
2019-04-28T11:52:17.050Z,2.57
2019-04-28T11:54:50.363Z,2.30
2019-04-28T11:57:20.402Z,2.60
2019-04-28T11:59:50.528Z,2.80
2019-04-28T12:02:20.747Z,2.70
2019-04-28T12:04:52.936Z,2.53
2019-04-28T12:07:23.339Z,2.60
2019-04-28T12:10:06.675Z,2.70
2019-04-28T12:12:56.357Z,2.67
2019-04-28T12:15:38.832Z,2.40
2019-04-28T12:18:30.957Z,2.40
2019-04-28T12:21:01.085Z,2.50
2019-04-28T12:23:31.163Z,2.00
2019-04-28T12:26:01.520Z,2.23
2019-04-28T12:28:31.881Z,2.40
2019-04-28T12:31:02.392Z,2.30
2019-04-28T12:33:32.597Z,2.33
2019-04-28T12:36:04.500Z,2.13
2019-04-28T12:38:34.716Z,2.50
2019-04-28T12:41:05.131Z,2.30
2019-04-28T12:43:35.362Z,2.20
2019-04-28T12:46:06.121Z,2.60
2019-04-28T12:48:36.932Z,2.50
2019-04-28T12:51:06.978Z,2.50
2019-04-28T12:53:39.165Z,3.07
2019-04-28T12:56:09.718Z,2.50
2019-04-28T12:58:39.989Z,2.80
2019-04-28T13:01:18.561Z,2.53
2019-04-28T13:04:08.807Z,2.40
2019-04-28T13:06:39.200Z,2.60
2019-04-28T13:09:09.513Z,2.60
2019-04-28T13:11:39.851Z,2.43
2019-04-28T13:14:10.100Z,2.70
2019-04-28T13:16:40.298Z,2.57
2019-04-28T13:19:13.423Z,2.60
2019-04-28T13:21:43.702Z,2.80
2019-04-28T13:24:16.675Z,2.50
2019-04-28T13:26:46.843Z,2.60
2019-04-28T13:29:17.191Z,2.60
2019-04-28T13:31:47.704Z,2.53
2019-04-28T13:34:19.724Z,2.53
2019-04-28T13:36:50.131Z,2.30
2019-04-28T13:39:34.817Z,2.50
2019-04-28T13:42:05.530Z,2.50
2019-04-28T13:44:53.345Z,2.80
2019-04-28T13:47:24.031Z,2.87
2019-04-28T13:49:57.431Z,2.93
2019-04-28T13:52:27.659Z,2.83
2019-04-28T13:55:09.263Z,2.60
2019-04-28T13:57:42.309Z,2.60
2019-04-28T14:00:13.755Z,2.37
2019-04-28T14:03:10.377Z,2.60
2019-04-28T14:06:07.547Z,2.30
2019-04-28T14:08:37.898Z,2.13
2019-04-28T14:11:08.243Z,2.30
2019-04-28T14:13:38.441Z,2.07
2019-04-28T14:16:08.621Z,2.40
2019-04-28T14:18:38.894Z,2.23
2019-04-28T14:21:09.113Z,2.23
2019-04-28T14:23:39.420Z,2.43
2019-04-28T14:26:13.118Z,2.10
2019-04-28T14:28:43.728Z,2.37
2019-04-28T14:31:13.983Z,2.20
2019-04-28T14:33:45.473Z,2.20
2019-04-28T14:36:15.565Z,2.30
2019-04-28T14:38:45.751Z,2.20
2019-04-28T14:41:15.828Z,2.20
2019-04-28T14:43:46.040Z,2.17
2019-04-28T14:46:16.365Z,2.17
2019-04-28T14:48:46.538Z,2.50
2019-04-28T14:51:16.743Z,3.20
2019-04-28T14:53:46.864Z,2.60
2019-04-28T14:56:17.502Z,2.10
2019-04-28T14:58:48.108Z,2.10
2019-04-28T15:01:37.393Z,2.20
2019-04-28T15:04:13.837Z,2.73
2019-04-28T15:06:55.735Z,2.97
2019-04-28T15:09:41.035Z,3.30
2019-04-28T15:12:11.189Z,4.17
2019-04-28T15:14:41.361Z,4.00
2019-04-28T15:17:14.430Z,4.10
2019-04-28T15:19:46.163Z,4.07
2019-04-28T15:22:16.694Z,3.60
2019-04-28T15:24:46.835Z,3.27
2019-04-28T15:27:19.223Z,3.03
2019-04-28T15:29:50.371Z,2.90
2019-04-28T15:32:20.587Z,3.10
2019-04-28T15:34:50.752Z,3.50
2019-04-28T15:37:20.820Z,3.40
2019-04-28T15:39:51.014Z,3.30
2019-04-28T15:42:21.139Z,3.90
2019-04-28T15:44:51.754Z,4.17
2019-04-28T15:47:21.785Z,4.03
2019-04-28T15:49:51.872Z,4.30
2019-04-28T15:52:22.059Z,4.73
2019-04-28T15:54:52.207Z,5.07
2019-04-28T15:57:22.328Z,6.10
2019-04-28T15:59:52.464Z,6.10
2019-04-28T16:02:22.520Z,5.93
2019-04-28T16:04:52.651Z,6.00
2019-04-28T16:07:24.983Z,6.20
2019-04-28T16:09:55.322Z,6.20
2019-04-28T16:12:25.413Z,5.63
2019-04-28T16:14:55.430Z,6.30
2019-04-28T16:17:25.546Z,6.60
2019-04-28T16:19:56.135Z,7.53
2019-04-28T16:22:26.293Z,6.63
2019-04-28T16:24:56.481Z,6.37
2019-04-28T16:27:26.651Z,6.07
2019-04-28T16:29:56.779Z,5.57
2019-04-28T16:32:27.016Z,4.60
2019-04-28T16:34:57.206Z,4.80
2019-04-28T16:37:38.239Z,4.57
2019-04-28T16:39:59.193Z,4.60
2019-04-28T16:42:32.175Z,4.80
2019-04-28T16:45:04.366Z,5.03
2019-04-28T16:47:34.463Z,5.10
2019-04-28T16:50:04.936Z,4.60
2019-04-28T16:52:35.000Z,4.80
2019-04-28T16:55:17.612Z,4.70
2019-04-28T16:57:57.189Z,4.53
2019-04-28T17:00:43.200Z,5.37
2019-04-28T17:03:14.969Z,5.20
2019-04-28T17:05:48.173Z,5.37
2019-04-28T17:08:18.615Z,5.23
2019-04-28T17:10:48.720Z,5.50
2019-04-28T17:13:18.817Z,5.60
2019-04-28T17:15:48.859Z,4.87
2019-04-28T17:18:21.375Z,6.13
2019-04-28T17:20:55.210Z,6.33
2019-04-28T17:23:25.418Z,5.77
2019-04-28T17:25:55.726Z,5.77
2019-04-28T17:28:25.845Z,6.13
2019-04-28T17:30:56.025Z,6.67
2019-04-28T17:33:26.498Z,6.80
2019-04-28T17:35:56.553Z,6.67
2019-04-28T17:38:29.607Z,5.67
2019-04-28T17:40:59.667Z,7.13
2019-04-28T17:43:29.746Z,6.47
2019-04-28T17:46:03.232Z,7.17
2019-04-28T17:48:36.706Z,6.73
2019-04-28T17:51:06.836Z,7.87
2019-04-28T17:53:36.937Z,7.97
2019-04-28T17:56:07.000Z,6.90
2019-04-28T17:58:37.972Z,6.80
2019-04-28T18:01:23.461Z,7.80
2019-04-28T18:04:24.291Z,7.67
2019-04-28T18:07:01.162Z,7.70
2019-04-28T18:09:34.281Z,7.47
2019-04-28T18:12:04.401Z,7.67
2019-04-28T18:14:39.301Z,7.90
2019-04-28T18:17:29.992Z,7.20
2019-04-28T18:20:00.282Z,7.73
2019-04-28T18:22:30.338Z,8.30
2019-04-28T18:25:04.438Z,8.20
2019-04-28T18:27:34.854Z,8.10
2019-04-28T18:30:05.474Z,8.60
2019-04-28T18:33:05.391Z,8.27
2019-04-28T18:35:39.964Z,9.27
2019-04-28T18:38:34.627Z,8.70
2019-04-28T18:41:20.583Z,9.17
2019-04-28T18:44:12.456Z,12.10
2019-04-28T18:46:42.680Z,11.87
2019-04-28T18:49:12.998Z,11.27
2019-04-28T18:51:46.376Z,10.90
2019-04-28T18:54:16.471Z,10.00
2019-04-28T18:56:46.510Z,10.83
2019-04-28T18:59:16.674Z,10.57
2019-04-28T19:01:59.614Z,10.27
2019-04-28T19:04:29.725Z,10.37
2019-04-28T19:07:05.372Z,11.20
2019-04-28T19:09:48.060Z,11.23
2019-04-28T19:12:35.907Z,10.40
2019-04-28T19:15:20.525Z,10.50
2019-04-28T19:17:57.469Z,11.20
2019-04-28T19:20:27.627Z,12.37
2019-04-28T19:22:57.834Z,12.30
2019-04-28T19:25:29.854Z,11.97
2019-04-28T19:27:59.763Z,12.37
2019-04-28T19:30:30.554Z,12.70
2019-04-28T19:33:02.509Z,12.40
2019-04-28T19:35:32.951Z,12.33
2019-04-28T19:38:03.188Z,13.07
2019-04-28T19:40:33.459Z,13.60
2019-04-28T19:43:03.646Z,13.20
2019-04-28T19:45:35.597Z,12.20
2019-04-28T19:48:05.712Z,12.57
2019-04-28T19:50:35.789Z,12.10
2019-04-28T19:53:07.994Z,12.17
2019-04-28T19:55:42.085Z,11.90
2019-04-28T19:58:19.542Z,12.30
2019-04-28T20:00:56.381Z,12.00
2019-04-28T20:03:26.763Z,12.20
2019-04-28T20:05:57.491Z,12.07
2019-04-28T20:08:27.700Z,13.67
2019-04-28T20:11:00.360Z,13.97
2019-04-28T20:13:31.433Z,13.47
2019-04-28T20:16:01.663Z,14.40
2019-04-28T20:18:31.797Z,13.33
2019-04-28T20:21:01.990Z,13.77
2019-04-28T20:23:32.727Z,14.83
2019-04-28T20:26:04.518Z,15.40
2019-04-28T20:28:36.899Z,15.03
2019-04-28T20:31:07.035Z,15.23
2019-04-28T20:33:37.168Z,16.60
2019-04-28T20:36:21.785Z,16.03
2019-04-28T20:38:58.250Z,16.97
2019-04-28T20:41:29.389Z,16.07
2019-04-28T20:44:03.460Z,15.13
2019-04-28T20:46:33.653Z,16.83
2019-04-28T20:49:03.884Z,18.03
2019-04-28T20:51:34.115Z,17.53
2019-04-28T20:54:04.469Z,15.50
2019-04-28T20:56:34.723Z,15.07
2019-04-28T20:59:04.905Z,16.53
2019-04-28T21:01:35.128Z,16.23
2019-04-28T21:04:05.344Z,15.80
2019-04-28T21:06:35.444Z,17.07
2019-04-28T21:09:09.595Z,16.17
2019-04-28T21:11:41.270Z,16.63
2019-04-28T21:14:11.302Z,16.20
2019-04-28T21:16:42.908Z,16.47
2019-04-28T21:19:12.952Z,17.67
2019-04-28T21:21:43.098Z,17.30
2019-04-28T21:24:13.246Z,16.50
2019-04-28T21:26:43.918Z,17.23
2019-04-28T21:29:14.050Z,17.23
2019-04-28T21:31:44.207Z,17.90
2019-04-28T21:34:14.329Z,18.57
2019-04-28T21:36:44.626Z,19.07
2019-04-28T21:39:14.685Z,18.57
2019-04-28T21:41:44.743Z,18.53
2019-04-28T21:44:30.075Z,20.00
2019-04-28T21:47:05.308Z,18.33
2019-04-28T21:49:38.453Z,19.07
2019-04-28T21:52:08.506Z,18.67
2019-04-28T21:54:38.525Z,19.77
2019-04-28T21:57:08.649Z,20.20
2019-04-28T21:59:38.715Z,19.53
2019-04-28T22:02:09.241Z,18.90
2019-04-28T22:04:39.468Z,18.80
2019-04-28T22:07:12.925Z,19.77
2019-04-28T22:09:44.581Z,19.43
2019-04-28T22:12:14.714Z,18.60
2019-04-28T22:14:44.833Z,19.93
2019-04-28T22:17:18.162Z,20.57
2019-04-28T22:19:48.262Z,20.00
2019-04-28T22:22:18.419Z,20.20
2019-04-28T22:24:58.213Z,20.47
2019-04-28T22:27:34.767Z,21.17
2019-04-28T22:30:06.323Z,20.43
2019-04-28T22:32:36.422Z,20.97
2019-04-28T22:35:07.191Z,20.97
2019-04-28T22:37:37.264Z,19.63
2019-04-28T22:40:14.851Z,20.93
2019-04-28T22:42:44.901Z,20.37
2019-04-28T22:45:15.579Z,21.73
2019-04-28T22:47:46.138Z,21.07
2019-04-28T22:50:38.473Z,20.93
2019-04-28T22:53:08.737Z,19.60
2019-04-28T22:55:44.171Z,19.90
2019-04-28T22:58:29.644Z,20.63
2019-04-28T23:01:18.900Z,20.80
2019-04-28T23:03:59.562Z,20.70
2019-04-28T23:06:31.279Z,20.87
2019-04-28T23:09:01.470Z,19.90
2019-04-28T23:11:32.000Z,21.23
2019-04-28T23:14:02.045Z,20.93
2019-04-28T23:16:32.891Z,21.43
2019-04-28T23:19:06.615Z,20.47
2019-04-28T23:22:01.973Z,19.80
2019-04-28T23:24:32.267Z,20.30
2019-04-28T23:27:02.284Z,19.73
2019-04-28T23:29:32.331Z,20.73
2019-04-28T23:32:02.506Z,20.47
2019-04-28T23:34:32.666Z,20.67
2019-04-28T23:37:02.807Z,20.93
2019-04-28T23:39:32.949Z,22.40
2019-04-28T23:42:22.021Z,21.67
2019-04-28T23:44:52.071Z,21.03
2019-04-28T23:47:22.217Z,23.03
2019-04-28T23:49:52.453Z,21.60
2019-04-28T23:52:43.367Z,21.23
2019-04-28T23:55:13.954Z,21.50
2019-04-28T23:57:44.058Z,21.30
